createdAt,value
2023-10-20T00:00:15.946Z,27.02
2023-10-20T00:02:44.197Z,26.55
2023-10-20T00:05:11.827Z,26.17
2023-10-20T00:07:39.299Z,26.25
2023-10-20T00:10:10.735Z,27.37
2023-10-20T00:12:41.397Z,27.92
2023-10-20T00:15:16.380Z,26.80
2023-10-20T00:17:45.155Z,26.48
2023-10-20T00:20:13.794Z,26.58
2023-10-20T00:22:41.946Z,26.62
2023-10-20T00:25:12.365Z,26.37
2023-10-20T00:27:42.681Z,27.00
2023-10-20T00:30:10.949Z,26.30
2023-10-20T00:32:41.648Z,27.08
2023-10-20T00:35:11.133Z,27.73
2023-10-20T00:37:38.747Z,27.13
2023-10-20T00:40:08.957Z,25.88
2023-10-20T00:42:37.358Z,27.13
2023-10-20T00:45:07.384Z,25.73
2023-10-20T00:47:37.387Z,25.92
2023-10-20T00:50:07.302Z,25.10
2023-10-20T00:52:37.171Z,25.30
2023-10-20T00:55:08.537Z,24.73
2023-10-20T00:57:36.419Z,24.00
2023-10-20T01:00:10.114Z,23.98
2023-10-20T01:02:38.193Z,25.65
2023-10-20T01:05:10.145Z,26.60
2023-10-20T01:07:38.060Z,26.80
2023-10-20T01:10:06.440Z,26.25
2023-10-20T01:12:34.865Z,26.20
2023-10-20T01:15:06.429Z,26.27
2023-10-20T01:17:34.631Z,24.60
2023-10-20T01:20:07.473Z,26.37
2023-10-20T01:22:35.341Z,25.27
2023-10-20T01:25:04.506Z,24.90
2023-10-20T01:27:32.096Z,25.12
2023-10-20T01:29:59.559Z,26.00
2023-10-20T01:32:27.404Z,26.05
2023-10-20T01:34:55.082Z,25.15
2023-10-20T01:37:22.763Z,24.95
2023-10-20T01:39:51.442Z,25.42
2023-10-20T01:42:18.887Z,25.10
2023-10-20T01:44:46.358Z,24.87
2023-10-20T01:47:14.221Z,24.15
2023-10-20T01:49:41.834Z,24.87
2023-10-20T01:52:09.279Z,24.27
2023-10-20T01:54:37.053Z,24.67
2023-10-20T01:57:04.567Z,24.10
2023-10-20T01:59:32.059Z,24.30
2023-10-20T02:01:59.937Z,24.77
2023-10-20T02:04:29.107Z,23.33
2023-10-20T02:06:56.621Z,23.73
2023-10-20T02:09:27.129Z,23.10
2023-10-20T02:11:58.286Z,23.52
2023-10-20T02:14:26.171Z,23.20
2023-10-20T02:16:54.743Z,23.33
2023-10-20T02:19:22.461Z,22.60
2023-10-20T02:21:50.568Z,22.98
2023-10-20T02:24:18.049Z,23.15
2023-10-20T02:26:47.118Z,23.87
2023-10-20T02:29:16.225Z,23.02
2023-10-20T02:31:44.529Z,21.95
2023-10-20T02:34:12.760Z,21.70
2023-10-20T02:36:40.905Z,21.23
2023-10-20T02:39:08.423Z,21.08
2023-10-20T02:41:36.999Z,20.33
2023-10-20T02:44:05.369Z,20.55
2023-10-20T02:46:32.872Z,20.58
2023-10-20T02:49:00.346Z,20.80
2023-10-20T02:51:28.050Z,20.27
2023-10-20T02:53:55.883Z,21.77
2023-10-20T02:56:24.755Z,21.05
2023-10-20T02:58:53.145Z,22.00
2023-10-20T03:01:22.178Z,19.50
2023-10-20T03:03:49.920Z,18.55
2023-10-20T03:06:18.186Z,18.83
2023-10-20T03:08:45.664Z,18.45
2023-10-20T03:11:14.070Z,18.67
2023-10-20T03:13:41.841Z,18.40
2023-10-20T03:16:09.355Z,17.83
2023-10-20T03:18:36.938Z,17.73
2023-10-20T03:21:04.649Z,14.75
2023-10-20T03:23:32.545Z,16.83
2023-10-20T03:26:00.038Z,15.60
2023-10-20T03:28:27.793Z,14.65
2023-10-20T03:30:55.380Z,14.40
2023-10-20T03:33:23.585Z,15.25
2023-10-20T03:36:02.998Z,15.37
2023-10-20T03:38:32.737Z,14.52
2023-10-20T03:41:12.281Z,13.68
2023-10-20T03:43:39.767Z,12.80
2023-10-20T03:46:07.543Z,13.50
2023-10-20T03:48:37.236Z,13.60
2023-10-20T03:51:11.886Z,13.43
2023-10-20T03:53:53.392Z,14.18
2023-10-20T03:56:23.406Z,14.00
2023-10-20T03:58:52.140Z,14.60
2023-10-20T04:01:19.750Z,13.50
2023-10-20T04:03:52.202Z,13.45
2023-10-20T04:06:21.209Z,12.55
2023-10-20T04:08:50.265Z,11.57
2023-10-20T04:11:17.750Z,11.57
2023-10-20T04:13:45.373Z,11.25
2023-10-20T04:16:14.646Z,11.30
2023-10-20T04:18:43.316Z,11.77
2023-10-20T04:21:13.233Z,12.00
2023-10-20T04:23:41.991Z,11.90
2023-10-20T04:26:22.669Z,11.18
2023-10-20T04:29:11.528Z,11.30
2023-10-20T04:31:58.370Z,11.93
2023-10-20T04:34:45.487Z,12.07
2023-10-20T04:37:31.508Z,11.32
2023-10-20T04:40:18.181Z,12.05
2023-10-20T04:43:17.853Z,12.15
2023-10-20T04:45:57.722Z,12.88
2023-10-20T04:48:57.228Z,12.68
2023-10-20T04:51:45.748Z,11.23
2023-10-20T04:54:21.346Z,10.82
2023-10-20T04:57:07.611Z,11.02
2023-10-20T04:59:35.320Z,10.77
2023-10-20T05:02:31.243Z,10.88
2023-10-20T05:05:01.349Z,11.68
2023-10-20T05:07:29.845Z,11.97
2023-10-20T05:09:57.461Z,11.50
2023-10-20T05:12:24.962Z,12.50
2023-10-20T05:14:52.790Z,12.85
2023-10-20T05:17:22.096Z,12.10
2023-10-20T05:19:50.765Z,11.30
2023-10-20T05:22:18.570Z,10.55
2023-10-20T05:24:46.062Z,10.20
2023-10-20T05:27:13.651Z,11.40
2023-10-20T05:29:41.474Z,10.70
2023-10-20T05:32:09.060Z,11.70
2023-10-20T05:34:36.770Z,11.20
2023-10-20T05:37:04.852Z,10.90
2023-10-20T05:39:32.656Z,11.53
2023-10-20T05:42:02.351Z,11.07
2023-10-20T05:44:33.884Z,11.40
2023-10-20T05:47:01.522Z,11.18
2023-10-20T05:49:29.067Z,11.98
2023-10-20T05:51:56.787Z,11.60
2023-10-20T05:54:25.892Z,11.52
2023-10-20T05:56:53.354Z,11.87
2023-10-20T05:59:21.115Z,11.95
2023-10-20T06:01:48.578Z,11.48
2023-10-20T06:04:16.579Z,11.75
2023-10-20T06:06:44.021Z,11.00
2023-10-20T06:09:11.537Z,11.12
2023-10-20T06:11:39.590Z,10.55
2023-10-20T06:14:07.240Z,10.55
2023-10-20T06:16:34.918Z,11.73
2023-10-20T06:19:03.187Z,11.50
2023-10-20T06:21:30.673Z,10.70
2023-10-20T06:23:58.194Z,11.15
2023-10-20T06:26:26.386Z,11.53
2023-10-20T06:28:53.911Z,11.85
2023-10-20T06:31:33.627Z,11.55
2023-10-20T06:34:10.844Z,11.25
2023-10-20T06:36:42.636Z,12.00
2023-10-20T06:39:14.306Z,11.30
2023-10-20T06:41:42.439Z,11.18
2023-10-20T06:44:11.192Z,11.43
2023-10-20T06:46:39.006Z,11.30
2023-10-20T06:49:08.255Z,11.88
2023-10-20T06:51:37.125Z,12.07
2023-10-20T06:54:04.669Z,11.63
2023-10-20T06:56:32.195Z,11.18
2023-10-20T06:58:59.901Z,11.60
2023-10-20T07:01:28.229Z,11.00
2023-10-20T07:03:55.973Z,11.00
2023-10-20T07:06:23.799Z,10.25
2023-10-20T07:08:52.126Z,11.32
2023-10-20T07:11:19.945Z,10.93
2023-10-20T07:13:47.703Z,11.30
2023-10-20T07:16:15.170Z,11.27
2023-10-20T07:18:42.845Z,11.38
2023-10-20T07:21:10.714Z,10.43
2023-10-20T07:23:38.222Z,10.53
2023-10-20T07:26:06.695Z,10.20
2023-10-20T07:28:34.408Z,10.23
2023-10-20T07:31:13.753Z,10.60
2023-10-20T07:33:42.063Z,10.00
2023-10-20T07:36:10.169Z,10.00
2023-10-20T07:38:37.831Z,10.50
2023-10-20T07:41:10.876Z,10.40
2023-10-20T07:43:42.297Z,9.90
2023-10-20T07:46:17.527Z,10.45
2023-10-20T07:48:46.988Z,10.48
2023-10-20T07:51:15.062Z,11.40
2023-10-20T07:53:42.608Z,11.40
2023-10-20T07:56:10.101Z,10.80
2023-10-20T07:58:38.129Z,10.43
2023-10-20T08:01:07.663Z,10.20
2023-10-20T08:03:35.515Z,9.63
2023-10-20T08:06:04.872Z,10.20
2023-10-20T08:08:33.965Z,10.15
2023-10-20T08:11:04.951Z,9.30
2023-10-20T08:13:34.965Z,9.73
2023-10-20T08:16:04.513Z,9.52
2023-10-20T08:18:34.742Z,10.02
2023-10-20T08:21:10.197Z,9.55
2023-10-20T08:23:38.797Z,9.63
2023-10-20T08:26:06.882Z,10.18
2023-10-20T08:28:34.339Z,9.82
2023-10-20T08:31:09.994Z,10.35
2023-10-20T08:33:37.870Z,9.80
2023-10-20T08:36:21.360Z,8.83
2023-10-20T08:38:51.710Z,8.75
2023-10-20T08:41:23.715Z,8.52
2023-10-20T08:43:51.716Z,8.30
2023-10-20T08:46:20.614Z,8.00
2023-10-20T08:48:48.746Z,8.02
2023-10-20T08:51:18.188Z,7.67
2023-10-20T08:53:47.101Z,7.97
2023-10-20T08:56:15.142Z,7.70
2023-10-20T08:58:45.896Z,7.78
2023-10-20T09:01:15.906Z,8.00
2023-10-20T09:03:46.397Z,7.47
2023-10-20T09:06:15.713Z,7.18
2023-10-20T09:08:52.535Z,6.80
2023-10-20T09:11:31.575Z,7.20
2023-10-20T09:14:00.311Z,6.70
2023-10-20T09:16:28.352Z,6.70
2023-10-20T09:18:56.234Z,6.07
2023-10-20T09:21:26.062Z,6.25
2023-10-20T09:24:04.829Z,6.30
2023-10-20T09:26:37.079Z,6.70
2023-10-20T09:29:09.372Z,6.10
2023-10-20T09:31:37.924Z,5.80
2023-10-20T09:34:05.832Z,6.20
2023-10-20T09:36:34.578Z,5.82
2023-10-20T09:39:02.683Z,5.50
2023-10-20T09:41:30.711Z,5.90
2023-10-20T09:44:08.021Z,5.55
2023-10-20T09:46:54.895Z,5.45
2023-10-20T09:49:28.128Z,5.15
2023-10-20T09:51:58.201Z,5.20
2023-10-20T09:54:33.645Z,5.22
2023-10-20T09:57:02.160Z,4.93
2023-10-20T09:59:29.985Z,4.90
2023-10-20T10:01:58.964Z,4.97
2023-10-20T10:04:38.409Z,5.20
2023-10-20T10:07:10.991Z,5.25
2023-10-20T10:09:40.334Z,5.00
2023-10-20T10:12:12.171Z,4.70
2023-10-20T10:14:40.040Z,5.00
2023-10-20T10:17:11.426Z,4.90
2023-10-20T10:19:54.663Z,4.47
2023-10-20T10:22:29.775Z,4.50
2023-10-20T10:25:00.597Z,4.55
2023-10-20T10:27:30.067Z,4.40
2023-10-20T10:30:02.710Z,4.27
2023-10-20T10:32:33.597Z,5.00
2023-10-20T10:35:02.627Z,4.70
2023-10-20T10:37:34.600Z,4.35
2023-10-20T10:40:16.735Z,4.60
2023-10-20T10:42:51.893Z,4.47
2023-10-20T10:45:24.360Z,4.45
2023-10-20T10:48:04.005Z,4.40
2023-10-20T10:50:31.872Z,4.60
2023-10-20T10:53:00.985Z,4.85
2023-10-20T10:55:28.705Z,5.30
2023-10-20T10:57:58.709Z,4.43
2023-10-20T11:00:29.046Z,4.75
2023-10-20T11:02:58.371Z,4.60
2023-10-20T11:05:26.213Z,4.80
2023-10-20T11:07:58.174Z,4.82
2023-10-20T11:10:29.595Z,4.55
2023-10-20T11:12:57.636Z,4.45
2023-10-20T11:15:31.653Z,4.78
2023-10-20T11:18:03.961Z,4.68
2023-10-20T11:20:39.107Z,4.50
2023-10-20T11:23:08.681Z,4.15
2023-10-20T11:25:37.985Z,4.43
2023-10-20T11:28:06.138Z,4.20
2023-10-20T11:30:36.173Z,4.30
2023-10-20T11:33:05.005Z,4.40
2023-10-20T11:35:32.878Z,4.12
2023-10-20T11:38:02.225Z,3.10
2023-10-20T11:40:30.263Z,2.85
2023-10-20T11:42:58.169Z,2.80
2023-10-20T11:45:26.579Z,3.07
2023-10-20T11:47:54.251Z,3.10
2023-10-20T11:50:23.128Z,2.60
2023-10-20T11:52:51.207Z,3.00
2023-10-20T11:55:19.558Z,3.08
2023-10-20T11:57:47.063Z,3.37
2023-10-20T12:00:15.312Z,3.00
2023-10-20T12:02:43.537Z,2.92
2023-10-20T12:05:11.491Z,3.40
2023-10-20T12:07:39.056Z,3.00
2023-10-20T12:10:07.753Z,3.22
2023-10-20T12:12:35.637Z,2.80
2023-10-20T12:15:04.031Z,3.30
2023-10-20T12:17:32.965Z,2.92
2023-10-20T12:20:00.470Z,3.45
2023-10-20T12:22:27.972Z,3.12
2023-10-20T12:24:56.132Z,3.15
2023-10-20T12:27:23.648Z,3.28
2023-10-20T12:29:51.309Z,3.12
2023-10-20T12:32:19.051Z,3.10
2023-10-20T12:34:46.606Z,2.97
2023-10-20T12:37:14.050Z,3.72
2023-10-20T12:39:41.914Z,3.30
2023-10-20T12:42:09.480Z,3.15
2023-10-20T12:44:37.555Z,3.42
2023-10-20T12:47:07.368Z,3.37
2023-10-20T12:49:35.025Z,3.95
2023-10-20T12:52:03.446Z,4.03
2023-10-20T12:54:31.410Z,3.58
2023-10-20T12:57:00.610Z,3.80
2023-10-20T12:59:28.208Z,3.70
2023-10-20T13:01:56.609Z,3.90
2023-10-20T13:04:24.453Z,3.37
2023-10-20T13:07:00.077Z,3.72
2023-10-20T13:09:29.395Z,3.30
2023-10-20T13:11:58.783Z,3.42
2023-10-20T13:14:27.587Z,3.40
2023-10-20T13:16:58.085Z,3.62
2023-10-20T13:19:25.632Z,3.67
2023-10-20T13:21:53.928Z,3.78
2023-10-20T13:24:21.741Z,3.80
2023-10-20T13:26:50.490Z,4.10
2023-10-20T13:29:18.082Z,4.00
2023-10-20T13:31:45.942Z,3.70
2023-10-20T13:34:13.410Z,3.95
2023-10-20T13:36:40.858Z,4.12
2023-10-20T13:41:39.410Z,4.07
2023-10-20T13:44:08.815Z,4.10
2023-10-20T13:46:38.706Z,3.60
2023-10-20T13:49:07.390Z,4.07
2023-10-20T13:51:35.060Z,3.87
2023-10-20T13:54:02.826Z,4.28
2023-10-20T13:56:30.511Z,4.00
2023-10-20T13:58:58.122Z,4.30
2023-10-20T14:01:26.297Z,3.70
2023-10-20T14:03:55.405Z,3.90
2023-10-20T14:06:24.935Z,4.07
2023-10-20T14:08:52.794Z,4.27
2023-10-20T14:11:20.622Z,4.40
2023-10-20T14:13:48.112Z,4.40
2023-10-20T14:16:15.561Z,4.55
2023-10-20T14:18:43.338Z,4.28
2023-10-20T14:21:10.834Z,3.93
2023-10-20T14:23:38.251Z,4.12
2023-10-20T14:26:05.972Z,4.20
2023-10-20T14:28:33.572Z,4.40
2023-10-20T14:31:04.803Z,4.62
2023-10-20T14:33:33.230Z,4.50
2023-10-20T14:36:01.244Z,5.33
2023-10-20T14:38:29.019Z,5.45
2023-10-20T14:41:00.977Z,4.82
2023-10-20T14:43:32.829Z,4.60
2023-10-20T14:46:01.220Z,5.50
2023-10-20T14:48:29.126Z,4.68
2023-10-20T14:50:57.912Z,4.93
2023-10-20T14:53:26.434Z,5.07
2023-10-20T14:55:53.867Z,4.20
2023-10-20T14:58:21.467Z,4.60
2023-10-20T15:00:50.400Z,4.40
2023-10-20T15:03:22.046Z,4.72
2023-10-20T15:05:51.047Z,4.50
2023-10-20T15:08:18.832Z,4.53
2023-10-20T15:10:46.359Z,4.32
2023-10-20T15:13:16.048Z,4.57
2023-10-20T15:15:43.627Z,4.43
2023-10-20T15:18:11.270Z,5.32
2023-10-20T15:20:41.459Z,5.25
2023-10-20T15:23:17.498Z,4.75
2023-10-20T15:25:46.259Z,4.90
2023-10-20T15:28:14.090Z,4.57
2023-10-20T15:30:41.652Z,4.80
2023-10-20T15:33:09.601Z,4.47
2023-10-20T15:35:40.825Z,4.68
2023-10-20T15:38:12.163Z,4.70
2023-10-20T15:40:40.060Z,4.78
2023-10-20T15:43:07.666Z,5.20
2023-10-20T15:45:35.598Z,4.77
2023-10-20T15:48:06.292Z,4.90
2023-10-20T15:50:34.203Z,5.62
2023-10-20T15:53:03.884Z,4.90
2023-10-20T15:55:39.846Z,4.90
2023-10-20T15:58:07.924Z,4.80
2023-10-20T16:00:36.046Z,4.78
2023-10-20T16:03:05.584Z,5.05
2023-10-20T16:05:33.330Z,4.65
2023-10-20T16:08:00.784Z,5.00
2023-10-20T16:10:28.456Z,5.15
2023-10-20T16:12:56.866Z,5.07
2023-10-20T16:15:24.397Z,5.30
2023-10-20T16:17:54.127Z,5.32
2023-10-20T16:20:21.874Z,5.70
2023-10-20T16:22:49.371Z,5.37
2023-10-20T16:25:17.392Z,5.00
2023-10-20T16:27:44.872Z,5.22
2023-10-20T16:30:13.271Z,5.40
2023-10-20T16:32:42.425Z,4.80
2023-10-20T16:35:10.834Z,5.32
2023-10-20T16:37:38.640Z,5.57
2023-10-20T16:40:07.659Z,5.62
2023-10-20T16:42:36.200Z,5.50
2023-10-20T16:45:08.456Z,5.93
2023-10-20T16:47:37.127Z,5.80
2023-10-20T16:50:05.709Z,5.20
2023-10-20T16:52:33.357Z,6.05
2023-10-20T16:55:01.480Z,5.05
2023-10-20T16:57:29.314Z,5.07
2023-10-20T16:59:57.701Z,4.45
2023-10-20T17:02:26.927Z,4.22
2023-10-20T17:04:56.218Z,5.07
2023-10-20T17:07:24.348Z,4.62
2023-10-20T17:09:52.616Z,4.60
2023-10-20T17:12:21.689Z,4.47
2023-10-20T17:14:49.865Z,4.87
2023-10-20T17:17:18.489Z,4.65
2023-10-20T17:19:46.528Z,4.75
2023-10-20T17:22:14.415Z,4.82
2023-10-20T17:24:43.905Z,4.45
2023-10-20T17:27:12.090Z,4.78
2023-10-20T17:29:40.207Z,4.45
2023-10-20T17:32:12.483Z,4.05
2023-10-20T17:34:41.792Z,4.53
2023-10-20T17:37:10.234Z,4.00
2023-10-20T17:39:38.568Z,4.10
2023-10-20T17:42:07.598Z,4.47
2023-10-20T17:44:36.498Z,4.85
2023-10-20T17:47:04.466Z,4.90
2023-10-20T17:49:33.648Z,4.62
2023-10-20T17:52:01.948Z,4.53
2023-10-20T17:54:30.636Z,4.63
2023-10-20T17:56:58.640Z,5.00
2023-10-20T17:59:27.974Z,4.68
2023-10-20T18:01:56.513Z,4.05
2023-10-20T18:04:25.776Z,4.20
2023-10-20T18:06:54.424Z,4.55
2023-10-20T18:09:22.863Z,4.50
2023-10-20T18:11:51.041Z,4.37
2023-10-20T18:14:19.490Z,4.37
2023-10-20T18:16:50.267Z,4.68
2023-10-20T18:19:20.889Z,4.37
2023-10-20T18:21:48.885Z,4.30
2023-10-20T18:24:18.931Z,4.32
2023-10-20T18:26:47.922Z,4.72
2023-10-20T18:29:16.113Z,4.37
2023-10-20T18:31:45.420Z,4.20
2023-10-20T18:34:14.634Z,4.30
2023-10-20T18:36:44.218Z,4.47
2023-10-20T18:39:17.418Z,4.50
2023-10-20T18:41:46.277Z,3.93
2023-10-20T18:44:14.981Z,4.53
2023-10-20T18:46:45.343Z,4.37
2023-10-20T18:49:14.074Z,4.57
2023-10-20T18:51:43.398Z,4.12
2023-10-20T18:54:12.848Z,4.32
2023-10-20T18:56:44.421Z,4.35
2023-10-20T18:59:12.891Z,4.18
2023-10-20T19:01:44.326Z,4.68
2023-10-20T19:04:15.279Z,4.62
2023-10-20T19:06:47.402Z,4.05
2023-10-20T19:09:18.858Z,4.40
2023-10-20T19:11:48.514Z,4.63
2023-10-20T19:14:19.266Z,4.75
2023-10-20T19:16:50.339Z,4.87
2023-10-20T19:19:20.068Z,4.45
2023-10-20T19:21:51.404Z,4.75
2023-10-20T19:24:21.332Z,4.82
2023-10-20T19:26:53.142Z,4.40
2023-10-20T19:29:23.329Z,4.35
2023-10-20T19:31:52.231Z,4.17
2023-10-20T19:34:20.537Z,4.30
2023-10-20T19:36:48.576Z,4.70
2023-10-20T19:39:17.260Z,4.30
2023-10-20T19:41:45.184Z,4.25
2023-10-20T19:44:13.841Z,4.75
2023-10-20T19:46:42.313Z,4.23
2023-10-20T19:49:12.203Z,4.00
2023-10-20T19:51:39.971Z,4.85
2023-10-20T19:54:09.399Z,4.30
2023-10-20T19:56:38.297Z,4.65
2023-10-20T19:59:07.256Z,4.32
2023-10-20T20:01:35.334Z,4.57
2023-10-20T20:04:03.937Z,4.90
2023-10-20T20:06:32.487Z,4.37
2023-10-20T20:09:00.416Z,4.85
2023-10-20T20:11:28.881Z,4.53
2023-10-20T20:13:57.011Z,4.22
2023-10-20T20:16:26.067Z,4.70
2023-10-20T20:18:54.127Z,4.43
2023-10-20T20:21:21.937Z,7.87
2023-10-20T20:23:49.506Z,5.50
2023-10-20T20:26:17.355Z,4.93
2023-10-20T20:28:47.779Z,4.85
2023-10-20T20:31:15.650Z,5.07
2023-10-20T20:33:43.410Z,6.03
2023-10-20T20:36:11.017Z,5.70
2023-10-20T20:38:38.731Z,5.25
2023-10-20T20:41:06.819Z,5.28
2023-10-20T20:43:34.298Z,5.68
2023-10-20T20:46:02.316Z,5.00
2023-10-20T20:48:32.022Z,4.90
2023-10-20T20:50:59.876Z,4.80
2023-10-20T20:53:27.398Z,5.22
2023-10-20T20:55:55.107Z,5.18
2023-10-20T20:58:23.101Z,5.28
2023-10-20T21:00:50.587Z,5.70
2023-10-20T21:03:18.461Z,5.73
2023-10-20T21:05:45.973Z,6.47
2023-10-20T21:08:13.528Z,7.37
2023-10-20T21:10:41.463Z,8.65
2023-10-20T21:13:08.855Z,7.77
2023-10-20T21:15:37.644Z,6.00
2023-10-20T21:18:06.046Z,6.05
2023-10-20T21:20:41.195Z,6.03
2023-10-20T21:23:08.904Z,5.30
2023-10-20T21:25:38.100Z,5.65
2023-10-20T21:28:06.465Z,5.57
2023-10-20T21:30:36.672Z,5.72
2023-10-20T21:33:04.382Z,6.25
2023-10-20T21:35:31.827Z,5.47
2023-10-20T21:37:59.518Z,5.37
2023-10-20T21:40:26.977Z,5.50
2023-10-20T21:42:54.407Z,5.35
2023-10-20T21:45:22.126Z,5.00
2023-10-20T21:47:50.706Z,4.72
2023-10-20T21:50:18.187Z,4.82
2023-10-20T21:52:45.903Z,4.55
2023-10-20T21:55:13.975Z,5.00
2023-10-20T21:57:41.416Z,4.87
2023-10-20T22:00:18.428Z,5.60
2023-10-20T22:02:47.785Z,5.17
2023-10-20T22:05:16.745Z,5.33
2023-10-20T22:07:44.570Z,5.65
2023-10-20T22:10:12.678Z,5.32
2023-10-20T22:12:40.127Z,5.05
2023-10-20T22:15:08.353Z,5.10
2023-10-20T22:17:36.155Z,4.68
2023-10-20T22:20:06.309Z,5.40
2023-10-20T22:22:33.764Z,5.47
2023-10-20T22:25:01.433Z,5.07
2023-10-20T22:27:30.427Z,5.28
2023-10-20T22:29:59.143Z,5.43
2023-10-20T22:32:26.860Z,5.28
2023-10-20T22:34:54.284Z,5.55
2023-10-20T22:37:21.826Z,5.03
2023-10-20T22:39:49.583Z,5.50
2023-10-20T22:42:17.128Z,5.27
2023-10-20T22:44:44.640Z,4.90
2023-10-20T22:47:12.577Z,5.20
2023-10-20T22:49:40.027Z,5.60
2023-10-20T22:52:07.450Z,5.65
2023-10-20T22:54:35.081Z,5.00
2023-10-20T22:57:02.554Z,5.30
2023-10-20T22:59:29.953Z,5.50
2023-10-20T23:01:57.664Z,5.78
2023-10-20T23:04:25.956Z,5.15
2023-10-20T23:06:53.975Z,5.35
2023-10-20T23:09:21.941Z,6.07
2023-10-20T23:11:49.501Z,5.68
2023-10-20T23:14:17.826Z,6.18
2023-10-20T23:16:45.601Z,6.53
2023-10-20T23:19:13.049Z,6.22
2023-10-20T23:21:40.474Z,6.45
2023-10-20T23:24:09.638Z,6.32
2023-10-20T23:26:38.348Z,6.35
2023-10-20T23:29:05.796Z,6.35
2023-10-20T23:31:34.010Z,6.20
2023-10-20T23:34:01.410Z,6.17
2023-10-20T23:36:28.813Z,6.18
2023-10-20T23:38:56.576Z,6.00
2023-10-20T23:41:24.219Z,6.03
2023-10-20T23:43:51.682Z,6.12
2023-10-20T23:46:19.413Z,6.35
2023-10-20T23:48:48.311Z,5.62
2023-10-20T23:51:15.882Z,6.37
2023-10-20T23:53:43.635Z,6.12
2023-10-20T23:56:12.086Z,6.05
2023-10-20T23:58:39.535Z,5.87
